sensor_id;sensor_type;location;lat;lon;timestamp;P1;durP1;ratioP1;P2;durP2;ratioP2
71629;SDS011;59479;51.902;8.212;2022-07-25T00:00:12;8.18;;;6.03;;
71629;SDS011;59479;51.902;8.212;2022-07-25T00:02:38;9.33;;;6.10;;
71629;SDS011;59479;51.902;8.212;2022-07-25T00:05:03;9.00;;;5.85;;
71629;SDS011;59479;51.902;8.212;2022-07-25T00:07:29;8.77;;;6.07;;
71629;SDS011;59479;51.902;8.212;2022-07-25T00:09:54;8.97;;;6.20;;
71629;SDS011;59479;51.902;8.212;2022-07-25T00:12:20;8.77;;;6.10;;
71629;SDS011;59479;51.902;8.212;2022-07-25T00:14:46;10.90;;;5.90;;
71629;SDS011;59479;51.902;8.212;2022-07-25T00:17:11;12.00;;;6.45;;
71629;SDS011;59479;51.902;8.212;2022-07-25T00:19:38;8.77;;;6.40;;
71629;SDS011;59479;51.902;8.212;2022-07-25T00:22:03;9.63;;;6.07;;
71629;SDS011;59479;51.902;8.212;2022-07-25T00:24:29;9.63;;;6.07;;
71629;SDS011;59479;51.902;8.212;2022-07-25T00:26:54;8.97;;;5.93;;
71629;SDS011;59479;51.902;8.212;2022-07-25T00:29:20;8.03;;;5.60;;
71629;SDS011;59479;51.902;8.212;2022-07-25T00:31:45;7.53;;;5.20;;
71629;SDS011;59479;51.902;8.212;2022-07-25T00:34:10;8.88;;;5.85;;
71629;SDS011;59479;51.902;8.212;2022-07-25T00:36:35;7.93;;;5.70;;
71629;SDS011;59479;51.902;8.212;2022-07-25T00:39:01;8.87;;;5.67;;
71629;SDS011;59479;51.902;8.212;2022-07-25T00:41:26;8.73;;;6.03;;
71629;SDS011;59479;51.902;8.212;2022-07-25T00:43:52;9.30;;;6.17;;
71629;SDS011;59479;51.902;8.212;2022-07-25T00:46:17;7.13;;;5.35;;
71629;SDS011;59479;51.902;8.212;2022-07-25T00:48:43;8.10;;;6.00;;
71629;SDS011;59479;51.902;8.212;2022-07-25T00:51:08;8.43;;;5.97;;
71629;SDS011;59479;51.902;8.212;2022-07-25T00:53:34;10.68;;;5.43;;
71629;SDS011;59479;51.902;8.212;2022-07-25T00:56:00;8.55;;;5.85;;
71629;SDS011;59479;51.902;8.212;2022-07-25T00:58:26;10.10;;;5.97;;
71629;SDS011;59479;51.902;8.212;2022-07-25T01:00:51;9.13;;;5.83;;
71629;SDS011;59479;51.902;8.212;2022-07-25T01:03:17;8.53;;;5.87;;
71629;SDS011;59479;51.902;8.212;2022-07-25T01:05:42;8.47;;;5.50;;
71629;SDS011;59479;51.902;8.212;2022-07-25T01:08:08;8.50;;;5.75;;
71629;SDS011;59479;51.902;8.212;2022-07-25T01:10:34;10.30;;;6.57;;
71629;SDS011;59479;51.902;8.212;2022-07-25T01:12:59;10.15;;;5.90;;
71629;SDS011;59479;51.902;8.212;2022-07-25T01:15:25;11.63;;;6.43;;
71629;SDS011;59479;51.902;8.212;2022-07-25T01:17:51;10.43;;;6.30;;
71629;SDS011;59479;51.902;8.212;2022-07-25T01:20:17;8.07;;;5.87;;
71629;SDS011;59479;51.902;8.212;2022-07-25T01:22:43;7.80;;;6.20;;
71629;SDS011;59479;51.902;8.212;2022-07-25T01:25:09;8.57;;;5.57;;
71629;SDS011;59479;51.902;8.212;2022-07-25T01:27:36;8.70;;;6.03;;
71629;SDS011;59479;51.902;8.212;2022-07-25T01:30:03;8.27;;;5.72;;
71629;SDS011;59479;51.902;8.212;2022-07-25T01:32:30;9.90;;;5.90;;
71629;SDS011;59479;51.902;8.212;2022-07-25T01:34:55;10.23;;;6.28;;
71629;SDS011;59479;51.902;8.212;2022-07-25T01:37:20;11.32;;;5.90;;
71629;SDS011;59479;51.902;8.212;2022-07-25T01:39:46;9.43;;;6.10;;
71629;SDS011;59479;51.902;8.212;2022-07-25T01:42:11;10.63;;;6.30;;
71629;SDS011;59479;51.902;8.212;2022-07-25T01:44:36;8.83;;;6.20;;
71629;SDS011;59479;51.902;8.212;2022-07-25T01:47:02;9.13;;;5.83;;
71629;SDS011;59479;51.902;8.212;2022-07-25T01:49:27;10.60;;;6.00;;
71629;SDS011;59479;51.902;8.212;2022-07-25T01:51:53;7.75;;;5.72;;
71629;SDS011;59479;51.902;8.212;2022-07-25T01:54:19;9.43;;;5.90;;
71629;SDS011;59479;51.902;8.212;2022-07-25T01:56:44;8.67;;;6.30;;
71629;SDS011;59479;51.902;8.212;2022-07-25T01:59:09;8.57;;;6.10;;
71629;SDS011;59479;51.902;8.212;2022-07-25T02:01:35;8.32;;;5.80;;
71629;SDS011;59479;51.902;8.212;2022-07-25T02:04:01;8.37;;;5.90;;
71629;SDS011;59479;51.902;8.212;2022-07-25T02:06:26;9.20;;;6.32;;
71629;SDS011;59479;51.902;8.212;2022-07-25T02:08:52;7.53;;;5.70;;
71629;SDS011;59479;51.902;8.212;2022-07-25T02:11:17;9.00;;;5.73;;
71629;SDS011;59479;51.902;8.212;2022-07-25T02:13:42;9.13;;;6.27;;
71629;SDS011;59479;51.902;8.212;2022-07-25T02:16:08;8.20;;;6.00;;
71629;SDS011;59479;51.902;8.212;2022-07-25T02:18:34;8.53;;;5.83;;
71629;SDS011;59479;51.902;8.212;2022-07-25T02:20:59;8.47;;;5.50;;
71629;SDS011;59479;51.902;8.212;2022-07-25T02:23:24;9.33;;;5.53;;
71629;SDS011;59479;51.902;8.212;2022-07-25T02:25:50;8.60;;;6.23;;
71629;SDS011;59479;51.902;8.212;2022-07-25T02:28:15;8.83;;;6.13;;
71629;SDS011;59479;51.902;8.212;2022-07-25T02:30:40;8.70;;;5.68;;
71629;SDS011;59479;51.902;8.212;2022-07-25T02:33:06;8.32;;;5.93;;
71629;SDS011;59479;51.902;8.212;2022-07-25T02:35:31;8.97;;;6.17;;
71629;SDS011;59479;51.902;8.212;2022-07-25T02:37:56;9.50;;;5.97;;
71629;SDS011;59479;51.902;8.212;2022-07-25T02:40:22;8.03;;;5.77;;
71629;SDS011;59479;51.902;8.212;2022-07-25T02:42:47;9.43;;;5.50;;
71629;SDS011;59479;51.902;8.212;2022-07-25T02:45:12;8.23;;;6.03;;
71629;SDS011;59479;51.902;8.212;2022-07-25T02:47:38;10.20;;;6.23;;
71629;SDS011;59479;51.902;8.212;2022-07-25T02:50:03;8.13;;;5.93;;
71629;SDS011;59479;51.902;8.212;2022-07-25T02:52:29;10.03;;;6.47;;
71629;SDS011;59479;51.902;8.212;2022-07-25T02:54:54;9.85;;;6.03;;
71629;SDS011;59479;51.902;8.212;2022-07-25T02:57:20;9.57;;;6.07;;
71629;SDS011;59479;51.902;8.212;2022-07-25T02:59:45;9.97;;;5.97;;
71629;SDS011;59479;51.902;8.212;2022-07-25T03:02:10;9.43;;;6.33;;
71629;SDS011;59479;51.902;8.212;2022-07-25T03:04:35;9.00;;;6.33;;
71629;SDS011;59479;51.902;8.212;2022-07-25T03:07:01;10.80;;;6.33;;
71629;SDS011;59479;51.902;8.212;2022-07-25T03:09:26;10.30;;;6.20;;
71629;SDS011;59479;51.902;8.212;2022-07-25T03:11:52;9.83;;;6.27;;
71629;SDS011;59479;51.902;8.212;2022-07-25T03:14:17;7.82;;;5.85;;
71629;SDS011;59479;51.902;8.212;2022-07-25T03:16:42;12.15;;;6.60;;
71629;SDS011;59479;51.902;8.212;2022-07-25T03:19:08;9.53;;;6.50;;
71629;SDS011;59479;51.902;8.212;2022-07-25T03:21:35;9.70;;;6.07;;
71629;SDS011;59479;51.902;8.212;2022-07-25T03:24:01;9.40;;;6.20;;
71629;SDS011;59479;51.902;8.212;2022-07-25T03:26:26;10.20;;;6.53;;
71629;SDS011;59479;51.902;8.212;2022-07-25T03:28:52;15.77;;;9.57;;
71629;SDS011;59479;51.902;8.212;2022-07-25T03:31:17;12.43;;;8.43;;
71629;SDS011;59479;51.902;8.212;2022-07-25T03:33:42;11.50;;;8.27;;
71629;SDS011;59479;51.902;8.212;2022-07-25T03:36:08;13.60;;;8.50;;
71629;SDS011;59479;51.902;8.212;2022-07-25T03:38:34;11.32;;;7.40;;
71629;SDS011;59479;51.902;8.212;2022-07-25T03:40:59;11.67;;;7.70;;
71629;SDS011;59479;51.902;8.212;2022-07-25T03:43:25;10.63;;;7.80;;
71629;SDS011;59479;51.902;8.212;2022-07-25T03:45:50;11.35;;;7.60;;
71629;SDS011;59479;51.902;8.212;2022-07-25T03:48:15;9.23;;;6.60;;
71629;SDS011;59479;51.902;8.212;2022-07-25T03:50:41;11.70;;;6.47;;
71629;SDS011;59479;51.902;8.212;2022-07-25T03:53:06;10.20;;;6.80;;
71629;SDS011;59479;51.902;8.212;2022-07-25T03:55:31;10.60;;;6.77;;
71629;SDS011;59479;51.902;8.212;2022-07-25T03:57:57;11.30;;;6.67;;
71629;SDS011;59479;51.902;8.212;2022-07-25T04:00:22;11.73;;;6.97;;
71629;SDS011;59479;51.902;8.212;2022-07-25T04:02:47;10.83;;;6.97;;
71629;SDS011;59479;51.902;8.212;2022-07-25T04:05:13;10.97;;;6.50;;
71629;SDS011;59479;51.902;8.212;2022-07-25T04:07:38;11.48;;;6.70;;
71629;SDS011;59479;51.902;8.212;2022-07-25T04:10:04;9.85;;;6.57;;
71629;SDS011;59479;51.902;8.212;2022-07-25T04:12:30;9.70;;;6.30;;
71629;SDS011;59479;51.902;8.212;2022-07-25T04:14:55;9.35;;;6.32;;
71629;SDS011;59479;51.902;8.212;2022-07-25T04:17:21;9.13;;;6.07;;
71629;SDS011;59479;51.902;8.212;2022-07-25T04:19:46;10.23;;;6.63;;
71629;SDS011;59479;51.902;8.212;2022-07-25T04:22:11;10.20;;;6.20;;
71629;SDS011;59479;51.902;8.212;2022-07-25T04:24:37;9.77;;;6.57;;
71629;SDS011;59479;51.902;8.212;2022-07-25T04:27:02;8.70;;;6.30;;
71629;SDS011;59479;51.902;8.212;2022-07-25T04:29:27;9.57;;;6.50;;
71629;SDS011;59479;51.902;8.212;2022-07-25T04:31:53;9.48;;;6.43;;
71629;SDS011;59479;51.902;8.212;2022-07-25T04:34:18;10.53;;;6.60;;
71629;SDS011;59479;51.902;8.212;2022-07-25T04:36:44;11.40;;;6.93;;
71629;SDS011;59479;51.902;8.212;2022-07-25T04:39:09;9.60;;;6.30;;
71629;SDS011;59479;51.902;8.212;2022-07-25T04:41:34;9.13;;;6.50;;
71629;SDS011;59479;51.902;8.212;2022-07-25T04:44:00;9.23;;;6.20;;
71629;SDS011;59479;51.902;8.212;2022-07-25T04:46:25;10.43;;;6.30;;
71629;SDS011;59479;51.902;8.212;2022-07-25T04:48:51;9.40;;;6.40;;
71629;SDS011;59479;51.902;8.212;2022-07-25T04:51:16;10.83;;;6.70;;
71629;SDS011;59479;51.902;8.212;2022-07-25T04:53:42;11.18;;;6.90;;
71629;SDS011;59479;51.902;8.212;2022-07-25T04:56:08;9.32;;;6.45;;
71629;SDS011;59479;51.902;8.212;2022-07-25T04:58:34;9.13;;;6.27;;
71629;SDS011;59479;51.902;8.212;2022-07-25T05:00:59;9.83;;;6.43;;
71629;SDS011;59479;51.902;8.212;2022-07-25T05:03:25;8.02;;;5.70;;
71629;SDS011;59479;51.902;8.212;2022-07-25T05:05:50;9.65;;;6.15;;
71629;SDS011;59479;51.902;8.212;2022-07-25T05:08:16;9.47;;;6.23;;
71629;SDS011;59479;51.902;8.212;2022-07-25T05:10:41;8.43;;;5.97;;
71629;SDS011;59479;51.902;8.212;2022-07-25T05:13:07;9.63;;;6.30;;
71629;SDS011;59479;51.902;8.212;2022-07-25T05:15:33;9.27;;;6.07;;
71629;SDS011;59479;51.902;8.212;2022-07-25T05:17:58;10.53;;;6.23;;
71629;SDS011;59479;51.902;8.212;2022-07-25T05:20:23;10.40;;;6.40;;
71629;SDS011;59479;51.902;8.212;2022-07-25T05:22:49;9.40;;;5.80;;
71629;SDS011;59479;51.902;8.212;2022-07-25T05:25:14;9.70;;;6.03;;
71629;SDS011;59479;51.902;8.212;2022-07-25T05:27:39;8.77;;;5.93;;
71629;SDS011;59479;51.902;8.212;2022-07-25T05:30:05;11.65;;;6.53;;
71629;SDS011;59479;51.902;8.212;2022-07-25T05:32:31;8.93;;;5.83;;
71629;SDS011;59479;51.902;8.212;2022-07-25T05:34:57;8.70;;;5.97;;
71629;SDS011;59479;51.902;8.212;2022-07-25T05:37:22;9.05;;;6.00;;
71629;SDS011;59479;51.902;8.212;2022-07-25T05:39:47;9.63;;;6.47;;
71629;SDS011;59479;51.902;8.212;2022-07-25T05:42:13;10.20;;;6.20;;
71629;SDS011;59479;51.902;8.212;2022-07-25T05:44:38;10.70;;;6.50;;
71629;SDS011;59479;51.902;8.212;2022-07-25T05:47:07;8.27;;;5.50;;
71629;SDS011;59479;51.902;8.212;2022-07-25T05:49:36;9.48;;;5.63;;
71629;SDS011;59479;51.902;8.212;2022-07-25T05:52:02;9.65;;;6.20;;
71629;SDS011;59479;51.902;8.212;2022-07-25T05:54:27;9.83;;;6.10;;
71629;SDS011;59479;51.902;8.212;2022-07-25T05:56:53;7.87;;;5.60;;
71629;SDS011;59479;51.902;8.212;2022-07-25T05:59:18;8.93;;;5.30;;
71629;SDS011;59479;51.902;8.212;2022-07-25T06:01:43;9.70;;;5.75;;
71629;SDS011;59479;51.902;8.212;2022-07-25T06:04:09;9.18;;;6.35;;
71629;SDS011;59479;51.902;8.212;2022-07-25T06:06:34;9.83;;;6.00;;
71629;SDS011;59479;51.902;8.212;2022-07-25T06:08:59;9.50;;;5.97;;
71629;SDS011;59479;51.902;8.212;2022-07-25T06:11:25;9.37;;;5.67;;
71629;SDS011;59479;51.902;8.212;2022-07-25T06:13:54;9.77;;;5.82;;
71629;SDS011;59479;51.902;8.212;2022-07-25T06:16:20;8.60;;;5.53;;
71629;SDS011;59479;51.902;8.212;2022-07-25T06:18:45;10.70;;;6.50;;
71629;SDS011;59479;51.902;8.212;2022-07-25T06:21:10;8.63;;;6.03;;
71629;SDS011;59479;51.902;8.212;2022-07-25T06:23:35;9.33;;;5.73;;
71629;SDS011;59479;51.902;8.212;2022-07-25T06:26:01;9.73;;;5.57;;
71629;SDS011;59479;51.902;8.212;2022-07-25T06:28:27;9.10;;;5.50;;
71629;SDS011;59479;51.902;8.212;2022-07-25T06:30:52;8.17;;;5.57;;
71629;SDS011;59479;51.902;8.212;2022-07-25T06:33:18;8.35;;;5.47;;
71629;SDS011;59479;51.902;8.212;2022-07-25T06:35:43;10.20;;;5.77;;
71629;SDS011;59479;51.902;8.212;2022-07-25T06:38:08;8.57;;;5.70;;
71629;SDS011;59479;51.902;8.212;2022-07-25T06:40:34;9.13;;;5.73;;
71629;SDS011;59479;51.902;8.212;2022-07-25T06:42:59;10.00;;;5.97;;
71629;SDS011;59479;51.902;8.212;2022-07-25T06:45:24;7.03;;;5.03;;
71629;SDS011;59479;51.902;8.212;2022-07-25T06:47:50;8.07;;;5.43;;
71629;SDS011;59479;51.902;8.212;2022-07-25T06:50:16;7.97;;;5.93;;
71629;SDS011;59479;51.902;8.212;2022-07-25T06:52:42;8.45;;;5.95;;
71629;SDS011;59479;51.902;8.212;2022-07-25T06:55:08;8.68;;;5.50;;
71629;SDS011;59479;51.902;8.212;2022-07-25T06:57:35;7.07;;;4.93;;
71629;SDS011;59479;51.902;8.212;2022-07-25T07:00:00;7.53;;;5.13;;
71629;SDS011;59479;51.902;8.212;2022-07-25T07:02:30;9.38;;;5.65;;
71629;SDS011;59479;51.902;8.212;2022-07-25T07:04:55;8.27;;;5.43;;
71629;SDS011;59479;51.902;8.212;2022-07-25T07:07:21;7.67;;;4.90;;
71629;SDS011;59479;51.902;8.212;2022-07-25T07:09:46;8.32;;;5.40;;
71629;SDS011;59479;51.902;8.212;2022-07-25T07:12:11;9.57;;;5.47;;
71629;SDS011;59479;51.902;8.212;2022-07-25T07:14:37;8.20;;;5.23;;
71629;SDS011;59479;51.902;8.212;2022-07-25T07:17:03;8.80;;;5.30;;
71629;SDS011;59479;51.902;8.212;2022-07-25T07:19:29;9.32;;;6.00;;
71629;SDS011;59479;51.902;8.212;2022-07-25T07:21:54;7.97;;;5.50;;
71629;SDS011;59479;51.902;8.212;2022-07-25T07:24:20;8.33;;;5.70;;
71629;SDS011;59479;51.902;8.212;2022-07-25T07:26:45;9.37;;;5.60;;
71629;SDS011;59479;51.902;8.212;2022-07-25T07:29:10;8.77;;;5.17;;
71629;SDS011;59479;51.902;8.212;2022-07-25T07:31:36;9.07;;;5.67;;
71629;SDS011;59479;51.902;8.212;2022-07-25T07:34:01;7.57;;;5.25;;
71629;SDS011;59479;51.902;8.212;2022-07-25T07:36:27;7.50;;;5.03;;
71629;SDS011;59479;51.902;8.212;2022-07-25T07:38:52;9.00;;;5.40;;
71629;SDS011;59479;51.902;8.212;2022-07-25T07:41:18;9.50;;;5.65;;
71629;SDS011;59479;51.902;8.212;2022-07-25T07:43:43;8.70;;;5.50;;
71629;SDS011;59479;51.902;8.212;2022-07-25T07:46:09;7.53;;;5.40;;
71629;SDS011;59479;51.902;8.212;2022-07-25T07:48:34;7.55;;;5.20;;
71629;SDS011;59479;51.902;8.212;2022-07-25T07:51:00;8.95;;;5.35;;
71629;SDS011;59479;51.902;8.212;2022-07-25T07:53:26;7.80;;;5.47;;
71629;SDS011;59479;51.902;8.212;2022-07-25T07:56:10;9.30;;;5.60;;
71629;SDS011;59479;51.902;8.212;2022-07-25T07:58:36;8.95;;;5.72;;
71629;SDS011;59479;51.902;8.212;2022-07-25T08:01:01;8.30;;;6.10;;
71629;SDS011;59479;51.902;8.212;2022-07-25T08:03:26;8.57;;;5.27;;
71629;SDS011;59479;51.902;8.212;2022-07-25T08:05:52;7.90;;;5.37;;
71629;SDS011;59479;51.902;8.212;2022-07-25T08:08:17;8.95;;;5.25;;
71629;SDS011;59479;51.902;8.212;2022-07-25T08:10:44;8.27;;;5.50;;
71629;SDS011;59479;51.902;8.212;2022-07-25T08:13:14;8.15;;;5.90;;
71629;SDS011;59479;51.902;8.212;2022-07-25T08:15:42;9.05;;;5.15;;
71629;SDS011;59479;51.902;8.212;2022-07-25T08:18:10;8.15;;;5.47;;
71629;SDS011;59479;51.902;8.212;2022-07-25T08:20:36;8.77;;;5.88;;
71629;SDS011;59479;51.902;8.212;2022-07-25T08:23:02;8.57;;;5.38;;
71629;SDS011;59479;51.902;8.212;2022-07-25T08:25:28;8.27;;;5.83;;
71629;SDS011;59479;51.902;8.212;2022-07-25T08:27:53;8.00;;;5.35;;
71629;SDS011;59479;51.902;8.212;2022-07-25T08:30:18;7.73;;;5.33;;
71629;SDS011;59479;51.902;8.212;2022-07-25T08:35:13;8.20;;;4.90;;
71629;SDS011;59479;51.902;8.212;2022-07-25T08:37:39;7.77;;;5.53;;
71629;SDS011;59479;51.902;8.212;2022-07-25T08:40:04;7.13;;;5.33;;
71629;SDS011;59479;51.902;8.212;2022-07-25T08:42:31;8.18;;;5.60;;
71629;SDS011;59479;51.902;8.212;2022-07-25T08:44:58;6.50;;;4.68;;
71629;SDS011;59479;51.902;8.212;2022-07-25T08:47:28;7.85;;;5.30;;
71629;SDS011;59479;51.902;8.212;2022-07-25T08:49:54;8.68;;;5.63;;
71629;SDS011;59479;51.902;8.212;2022-07-25T08:52:19;8.40;;;5.70;;
71629;SDS011;59479;51.902;8.212;2022-07-25T08:54:45;6.63;;;4.72;;
71629;SDS011;59479;51.902;8.212;2022-07-25T08:57:12;8.30;;;5.73;;
71629;SDS011;59479;51.902;8.212;2022-07-25T08:59:37;9.50;;;5.60;;
71629;SDS011;59479;51.902;8.212;2022-07-25T09:02:02;8.93;;;5.90;;
71629;SDS011;59479;51.902;8.212;2022-07-25T09:04:32;8.35;;;5.93;;
71629;SDS011;59479;51.902;8.212;2022-07-25T09:06:58;7.95;;;5.13;;
71629;SDS011;59479;51.902;8.212;2022-07-25T09:09:35;7.83;;;5.10;;
71629;SDS011;59479;51.902;8.212;2022-07-25T09:12:03;7.47;;;4.93;;
71629;SDS011;59479;51.902;8.212;2022-07-25T09:14:29;7.75;;;5.00;;
71629;SDS011;59479;51.902;8.212;2022-07-25T09:16:55;7.50;;;5.27;;
71629;SDS011;59479;51.902;8.212;2022-07-25T09:19:22;8.02;;;5.20;;
71629;SDS011;59479;51.902;8.212;2022-07-25T09:22:01;8.05;;;5.28;;
71629;SDS011;59479;51.902;8.212;2022-07-25T09:24:28;7.80;;;5.10;;
71629;SDS011;59479;51.902;8.212;2022-07-25T09:26:56;9.23;;;5.25;;
71629;SDS011;59479;51.902;8.212;2022-07-25T09:29:24;8.00;;;5.13;;
71629;SDS011;59479;51.902;8.212;2022-07-25T09:31:54;11.35;;;5.68;;
71629;SDS011;59479;51.902;8.212;2022-07-25T09:34:28;7.60;;;5.80;;
71629;SDS011;59479;51.902;8.212;2022-07-25T09:36:59;8.55;;;5.03;;
71629;SDS011;59479;51.902;8.212;2022-07-25T09:39:45;7.00;;;5.18;;
71629;SDS011;59479;51.902;8.212;2022-07-25T09:42:15;8.98;;;5.25;;
71629;SDS011;59479;51.902;8.212;2022-07-25T09:44:43;7.50;;;5.30;;
71629;SDS011;59479;51.902;8.212;2022-07-25T09:47:20;7.90;;;5.68;;
71629;SDS011;59479;51.902;8.212;2022-07-25T09:49:45;9.30;;;5.50;;
71629;SDS011;59479;51.902;8.212;2022-07-25T09:52:12;7.85;;;4.97;;
71629;SDS011;59479;51.902;8.212;2022-07-25T09:54:38;9.97;;;5.40;;
71629;SDS011;59479;51.902;8.212;2022-07-25T09:57:04;8.40;;;5.28;;
71629;SDS011;59479;51.902;8.212;2022-07-25T09:59:29;7.78;;;5.00;;
71629;SDS011;59479;51.902;8.212;2022-07-25T10:02:07;7.13;;;5.23;;
71629;SDS011;59479;51.902;8.212;2022-07-25T10:04:42;7.55;;;5.25;;
71629;SDS011;59479;51.902;8.212;2022-07-25T10:07:11;9.90;;;5.00;;
71629;SDS011;59479;51.902;8.212;2022-07-25T10:09:46;9.65;;;5.07;;
71629;SDS011;59479;51.902;8.212;2022-07-25T10:12:13;7.50;;;5.40;;
71629;SDS011;59479;51.902;8.212;2022-07-25T10:14:42;7.10;;;4.77;;
71629;SDS011;59479;51.902;8.212;2022-07-25T10:17:07;8.23;;;5.57;;
71629;SDS011;59479;51.902;8.212;2022-07-25T10:19:46;8.03;;;5.43;;
71629;SDS011;59479;51.902;8.212;2022-07-25T10:22:12;8.48;;;5.10;;
71629;SDS011;59479;51.902;8.212;2022-07-25T10:24:42;8.75;;;5.68;;
71629;SDS011;59479;51.902;8.212;2022-07-25T10:27:10;8.45;;;5.05;;
71629;SDS011;59479;51.902;8.212;2022-07-25T10:29:38;8.32;;;5.38;;
71629;SDS011;59479;51.902;8.212;2022-07-25T10:32:08;8.30;;;5.35;;
71629;SDS011;59479;51.902;8.212;2022-07-25T10:34:36;8.32;;;5.35;;
71629;SDS011;59479;51.902;8.212;2022-07-25T10:37:15;9.00;;;5.32;;
71629;SDS011;59479;51.902;8.212;2022-07-25T10:39:43;7.07;;;4.82;;
71629;SDS011;59479;51.902;8.212;2022-07-25T10:42:13;7.25;;;5.07;;
71629;SDS011;59479;51.902;8.212;2022-07-25T10:44:41;8.13;;;5.13;;
71629;SDS011;59479;51.902;8.212;2022-07-25T10:47:08;8.30;;;4.90;;
71629;SDS011;59479;51.902;8.212;2022-07-25T10:49:36;8.32;;;5.78;;
71629;SDS011;59479;51.902;8.212;2022-07-25T10:52:04;9.85;;;5.53;;
71629;SDS011;59479;51.902;8.212;2022-07-25T10:54:37;8.70;;;5.10;;
71629;SDS011;59479;51.902;8.212;2022-07-25T10:57:03;9.38;;;5.32;;
71629;SDS011;59479;51.902;8.212;2022-07-25T10:59:31;8.43;;;5.30;;
71629;SDS011;59479;51.902;8.212;2022-07-25T11:01:57;9.40;;;5.47;;
71629;SDS011;59479;51.902;8.212;2022-07-25T11:04:23;9.07;;;5.05;;
71629;SDS011;59479;51.902;8.212;2022-07-25T11:06:49;7.73;;;4.90;;
71629;SDS011;59479;51.902;8.212;2022-07-25T11:09:15;7.90;;;6.10;;
71629;SDS011;59479;51.902;8.212;2022-07-25T11:11:44;8.77;;;5.55;;
71629;SDS011;59479;51.902;8.212;2022-07-25T11:16:41;7.35;;;4.82;;
71629;SDS011;59479;51.902;8.212;2022-07-25T11:19:21;7.40;;;5.32;;
71629;SDS011;59479;51.902;8.212;2022-07-25T11:21:51;10.47;;;5.70;;
71629;SDS011;59479;51.902;8.212;2022-07-25T11:24:19;8.73;;;5.05;;
71629;SDS011;59479;51.902;8.212;2022-07-25T11:26:50;7.80;;;5.13;;
71629;SDS011;59479;51.902;8.212;2022-07-25T11:29:17;8.35;;;5.05;;
71629;SDS011;59479;51.902;8.212;2022-07-25T11:31:55;8.13;;;5.53;;
71629;SDS011;59479;51.902;8.212;2022-07-25T11:34:24;8.93;;;5.00;;
71629;SDS011;59479;51.902;8.212;2022-07-25T11:36:52;8.13;;;5.38;;
71629;SDS011;59479;51.902;8.212;2022-07-25T11:39:22;8.35;;;5.57;;
71629;SDS011;59479;51.902;8.212;2022-07-25T11:42:24;9.80;;;5.82;;
71629;SDS011;59479;51.902;8.212;2022-07-25T11:44:44;10.38;;;5.70;;
71629;SDS011;59479;51.902;8.212;2022-07-25T11:47:26;9.35;;;5.55;;
71629;SDS011;59479;51.902;8.212;2022-07-25T11:49:53;9.05;;;5.60;;
71629;SDS011;59479;51.902;8.212;2022-07-25T11:52:21;8.98;;;5.72;;
71629;SDS011;59479;51.902;8.212;2022-07-25T11:57:39;8.13;;;5.35;;
71629;SDS011;59479;51.902;8.212;2022-07-25T12:00:15;11.40;;;5.70;;
71629;SDS011;59479;51.902;8.212;2022-07-25T12:02:43;8.23;;;5.30;;
71629;SDS011;59479;51.902;8.212;2022-07-25T12:05:09;7.50;;;5.35;;
71629;SDS011;59479;51.902;8.212;2022-07-25T12:07:40;10.45;;;5.50;;
71629;SDS011;59479;51.902;8.212;2022-07-25T12:10:11;8.50;;;5.72;;
71629;SDS011;59479;51.902;8.212;2022-07-25T12:12:56;8.05;;;5.70;;
71629;SDS011;59479;51.902;8.212;2022-07-25T12:15:26;9.65;;;5.72;;
71629;SDS011;59479;51.902;8.212;2022-07-25T12:17:54;10.07;;;6.20;;
71629;SDS011;59479;51.902;8.212;2022-07-25T12:20:21;12.80;;;6.13;;
71629;SDS011;59479;51.902;8.212;2022-07-25T12:22:53;7.78;;;5.65;;
71629;SDS011;59479;51.902;8.212;2022-07-25T12:25:20;9.83;;;5.50;;
71629;SDS011;59479;51.902;8.212;2022-07-25T12:27:46;13.35;;;6.32;;
71629;SDS011;59479;51.902;8.212;2022-07-25T12:30:11;9.10;;;5.57;;
71629;SDS011;59479;51.902;8.212;2022-07-25T12:32:37;38.40;;;9.30;;
71629;SDS011;59479;51.902;8.212;2022-07-25T12:35:03;13.60;;;6.30;;
71629;SDS011;59479;51.902;8.212;2022-07-25T12:37:32;11.35;;;6.15;;
71629;SDS011;59479;51.902;8.212;2022-07-25T12:39:58;12.55;;;6.10;;
71629;SDS011;59479;51.902;8.212;2022-07-25T12:42:23;10.60;;;6.33;;
71629;SDS011;59479;51.902;8.212;2022-07-25T12:44:49;8.75;;;6.20;;
71629;SDS011;59479;51.902;8.212;2022-07-25T12:47:15;10.73;;;5.73;;
71629;SDS011;59479;51.902;8.212;2022-07-25T12:49:40;8.63;;;5.83;;
71629;SDS011;59479;51.902;8.212;2022-07-25T12:52:06;8.23;;;5.50;;
71629;SDS011;59479;51.902;8.212;2022-07-25T12:54:32;8.23;;;5.90;;
71629;SDS011;59479;51.902;8.212;2022-07-25T12:56:57;9.90;;;6.20;;
71629;SDS011;59479;51.902;8.212;2022-07-25T12:59:22;8.37;;;6.00;;
71629;SDS011;59479;51.902;8.212;2022-07-25T13:01:48;9.17;;;6.67;;
71629;SDS011;59479;51.902;8.212;2022-07-25T13:04:13;10.77;;;6.40;;
71629;SDS011;59479;51.902;8.212;2022-07-25T13:06:38;9.02;;;6.65;;
71629;SDS011;59479;51.902;8.212;2022-07-25T13:09:04;10.77;;;6.17;;
71629;SDS011;59479;51.902;8.212;2022-07-25T13:11:30;8.63;;;5.90;;
71629;SDS011;59479;51.902;8.212;2022-07-25T13:13:55;12.50;;;6.63;;
71629;SDS011;59479;51.902;8.212;2022-07-25T13:16:21;9.60;;;6.90;;
71629;SDS011;59479;51.902;8.212;2022-07-25T13:18:46;10.33;;;6.40;;
71629;SDS011;59479;51.902;8.212;2022-07-25T13:21:12;8.50;;;6.55;;
71629;SDS011;59479;51.902;8.212;2022-07-25T13:23:37;8.97;;;6.10;;
71629;SDS011;59479;51.902;8.212;2022-07-25T13:26:03;9.73;;;6.90;;
71629;SDS011;59479;51.902;8.212;2022-07-25T13:28:29;8.67;;;6.00;;
71629;SDS011;59479;51.902;8.212;2022-07-25T13:30:54;9.53;;;6.27;;
71629;SDS011;59479;51.902;8.212;2022-07-25T13:33:20;10.67;;;6.50;;
71629;SDS011;59479;51.902;8.212;2022-07-25T13:35:45;10.23;;;6.60;;
71629;SDS011;59479;51.902;8.212;2022-07-25T13:38:10;12.40;;;6.17;;
71629;SDS011;59479;51.902;8.212;2022-07-25T13:40:36;9.97;;;6.43;;
71629;SDS011;59479;51.902;8.212;2022-07-25T13:43:06;8.85;;;6.32;;
71629;SDS011;59479;51.902;8.212;2022-07-25T13:45:35;10.00;;;5.50;;
71629;SDS011;59479;51.902;8.212;2022-07-25T13:48:00;7.72;;;5.53;;
71629;SDS011;59479;51.902;8.212;2022-07-25T13:50:26;9.63;;;6.33;;
71629;SDS011;59479;51.902;8.212;2022-07-25T13:52:51;8.77;;;5.53;;
71629;SDS011;59479;51.902;8.212;2022-07-25T13:55:17;7.83;;;5.40;;
71629;SDS011;59479;51.902;8.212;2022-07-25T13:57:44;9.20;;;5.03;;
71629;SDS011;59479;51.902;8.212;2022-07-25T14:00:10;8.60;;;5.60;;
71629;SDS011;59479;51.902;8.212;2022-07-25T14:02:36;8.00;;;5.20;;
71629;SDS011;59479;51.902;8.212;2022-07-25T14:05:02;8.43;;;5.22;;
71629;SDS011;59479;51.902;8.212;2022-07-25T14:07:27;8.40;;;4.80;;
71629;SDS011;59479;51.902;8.212;2022-07-25T14:09:53;9.35;;;5.20;;
71629;SDS011;59479;51.902;8.212;2022-07-25T14:12:18;8.37;;;5.07;;
71629;SDS011;59479;51.902;8.212;2022-07-25T14:14:43;8.87;;;4.33;;
71629;SDS011;59479;51.902;8.212;2022-07-25T14:17:09;7.67;;;4.90;;
71629;SDS011;59479;51.902;8.212;2022-07-25T14:19:34;6.43;;;4.03;;
71629;SDS011;59479;51.902;8.212;2022-07-25T14:22:00;7.10;;;4.57;;
71629;SDS011;59479;51.902;8.212;2022-07-25T14:24:25;6.15;;;3.97;;
71629;SDS011;59479;51.902;8.212;2022-07-25T14:26:50;7.43;;;4.40;;
71629;SDS011;59479;51.902;8.212;2022-07-25T14:29:18;6.50;;;4.05;;
71629;SDS011;59479;51.902;8.212;2022-07-25T14:31:46;6.87;;;3.57;;
71629;SDS011;59479;51.902;8.212;2022-07-25T14:34:11;7.03;;;3.78;;
71629;SDS011;59479;51.902;8.212;2022-07-25T14:36:41;7.40;;;3.70;;
71629;SDS011;59479;51.902;8.212;2022-07-25T14:39:08;8.18;;;3.90;;
71629;SDS011;59479;51.902;8.212;2022-07-25T14:41:34;7.90;;;3.63;;
71629;SDS011;59479;51.902;8.212;2022-07-25T14:43:59;7.67;;;4.00;;
71629;SDS011;59479;51.902;8.212;2022-07-25T14:46:24;7.37;;;3.87;;
71629;SDS011;59479;51.902;8.212;2022-07-25T14:48:51;6.32;;;3.55;;